sensor_id;sensor_type;location;lat;lon;timestamp;pressure;altitude;pressure_sealevel;temperature;humidity
74268;BME280;62638;51.362;12.472;2023-04-25T00:00:11;99272.13;;;7.38;83.24
74268;BME280;62638;51.362;12.472;2023-04-25T00:02:37;99273.50;;;7.42;83.54
74268;BME280;62638;51.362;12.472;2023-04-25T00:05:02;99274.44;;;7.50;83.00
74268;BME280;62638;51.362;12.472;2023-04-25T00:07:28;99273.28;;;7.53;83.39
74268;BME280;62638;51.362;12.472;2023-04-25T00:09:53;99271.06;;;7.48;83.76
74268;BME280;62638;51.362;12.472;2023-04-25T00:12:19;99260.94;;;7.52;84.05
74268;BME280;62638;51.362;12.472;2023-04-25T00:14:44;99264.31;;;7.54;84.11
74268;BME280;62638;51.362;12.472;2023-04-25T00:17:10;99265.16;;;7.54;83.92
74268;BME280;62638;51.362;12.472;2023-04-25T00:19:36;99267.53;;;7.57;84.14
74268;BME280;62638;51.362;12.472;2023-04-25T00:22:02;99265.69;;;7.58;84.39
74268;BME280;62638;51.362;12.472;2023-04-25T00:24:28;99265.00;;;7.56;84.56
74268;BME280;62638;51.362;12.472;2023-04-25T00:26:53;99263.94;;;7.49;84.99
74268;BME280;62638;51.362;12.472;2023-04-25T00:29:18;99261.25;;;7.49;85.43
74268;BME280;62638;51.362;12.472;2023-04-25T00:31:43;99265.97;;;7.37;85.54
74268;BME280;62638;51.362;12.472;2023-04-25T00:34:09;99262.88;;;7.32;86.22
74268;BME280;62638;51.362;12.472;2023-04-25T00:36:34;99259.38;;;7.32;86.36
74268;BME280;62638;51.362;12.472;2023-04-25T00:39:00;99269.94;;;7.23;86.71
74268;BME280;62638;51.362;12.472;2023-04-25T00:41:26;99262.38;;;7.19;87.37
74268;BME280;62638;51.362;12.472;2023-04-25T00:43:52;99272.41;;;7.07;87.69
74268;BME280;62638;51.362;12.472;2023-04-25T00:46:18;99261.94;;;6.87;88.81
74268;BME280;62638;51.362;12.472;2023-04-25T00:48:44;99259.84;;;6.90;88.68
74268;BME280;62638;51.362;12.472;2023-04-25T00:51:13;99271.50;;;6.79;89.14
74268;BME280;62638;51.362;12.472;2023-04-25T00:53:40;99273.59;;;6.76;89.48
74268;BME280;62638;51.362;12.472;2023-04-25T00:56:06;99267.03;;;6.70;89.10
74268;BME280;62638;51.362;12.472;2023-04-25T00:58:31;99268.72;;;6.62;89.86
74268;BME280;62638;51.362;12.472;2023-04-25T01:00:57;99264.81;;;6.56;90.38
74268;BME280;62638;51.362;12.472;2023-04-25T01:03:23;99264.00;;;6.56;90.10
74268;BME280;62638;51.362;12.472;2023-04-25T01:05:49;99266.25;;;6.51;90.27
74268;BME280;62638;51.362;12.472;2023-04-25T01:08:15;99265.66;;;6.57;90.43
74268;BME280;62638;51.362;12.472;2023-04-25T01:10:40;99267.75;;;6.53;90.00
74268;BME280;62638;51.362;12.472;2023-04-25T01:13:06;99270.56;;;6.52;90.14
74268;BME280;62638;51.362;12.472;2023-04-25T01:15:31;99265.94;;;6.44;90.75
74268;BME280;62638;51.362;12.472;2023-04-25T01:17:57;99249.88;;;6.36;90.53
74268;BME280;62638;51.362;12.472;2023-04-25T01:20:24;99261.91;;;6.40;90.15
74268;BME280;62638;51.362;12.472;2023-04-25T01:22:50;99260.78;;;6.33;90.77
74268;BME280;62638;51.362;12.472;2023-04-25T01:25:16;99253.25;;;6.28;90.81
74268;BME280;62638;51.362;12.472;2023-04-25T01:27:42;99259.94;;;6.32;90.17
74268;BME280;62638;51.362;12.472;2023-04-25T01:30:08;99263.16;;;6.26;90.28
74268;BME280;62638;51.362;12.472;2023-04-25T01:32:34;99251.84;;;6.24;90.30
74268;BME280;62638;51.362;12.472;2023-04-25T01:35:08;99263.88;;;6.19;90.61
74268;BME280;62638;51.362;12.472;2023-04-25T01:37:41;99262.34;;;6.16;90.37
74268;BME280;62638;51.362;12.472;2023-04-25T01:40:09;99257.72;;;6.18;89.76
74268;BME280;62638;51.362;12.472;2023-04-25T01:42:36;99269.06;;;6.20;89.42
74268;BME280;62638;51.362;12.472;2023-04-25T01:45:02;99263.75;;;6.11;89.76
74268;BME280;62638;51.362;12.472;2023-04-25T01:47:28;99256.72;;;6.00;89.64
74268;BME280;62638;51.362;12.472;2023-04-25T01:49:54;99254.94;;;6.20;88.51
74268;BME280;62638;51.362;12.472;2023-04-25T01:52:19;99254.63;;;6.32;87.28
74268;BME280;62638;51.362;12.472;2023-04-25T01:54:45;99247.50;;;6.33;86.63
74268;BME280;62638;51.362;12.472;2023-04-25T01:57:11;99253.78;;;6.22;86.70
74268;BME280;62638;51.362;12.472;2023-04-25T01:59:37;99265.97;;;6.25;86.57
74268;BME280;62638;51.362;12.472;2023-04-25T02:02:02;99261.63;;;6.24;86.58
74268;BME280;62638;51.362;12.472;2023-04-25T02:04:31;99252.69;;;6.25;85.72
74268;BME280;62638;51.362;12.472;2023-04-25T02:06:56;99254.75;;;6.21;86.15
74268;BME280;62638;51.362;12.472;2023-04-25T02:09:21;99267.06;;;6.13;86.05
74268;BME280;62638;51.362;12.472;2023-04-25T02:11:47;99254.91;;;6.10;86.11
74268;BME280;62638;51.362;12.472;2023-04-25T02:14:12;99258.28;;;6.03;85.87
74268;BME280;62638;51.362;12.472;2023-04-25T02:16:37;99259.97;;;5.94;86.95
74268;BME280;62638;51.362;12.472;2023-04-25T02:19:04;99246.34;;;5.78;87.69
74268;BME280;62638;51.362;12.472;2023-04-25T02:21:30;99263.31;;;5.86;87.54
74268;BME280;62638;51.362;12.472;2023-04-25T02:23:55;99266.19;;;5.83;87.87
74268;BME280;62638;51.362;12.472;2023-04-25T02:26:21;99261.03;;;5.72;87.85
74268;BME280;62638;51.362;12.472;2023-04-25T02:28:46;99254.56;;;5.65;88.88
74268;BME280;62638;51.362;12.472;2023-04-25T02:31:11;99260.72;;;5.75;88.15
74268;BME280;62638;51.362;12.472;2023-04-25T02:33:37;99255.16;;;5.69;88.26
74268;BME280;62638;51.362;12.472;2023-04-25T02:36:02;99257.94;;;5.67;88.42
74268;BME280;62638;51.362;12.472;2023-04-25T02:38:28;99250.69;;;5.69;88.76
74268;BME280;62638;51.362;12.472;2023-04-25T02:40:53;99251.06;;;5.55;89.05
74268;BME280;62638;51.362;12.472;2023-04-25T02:43:18;99252.03;;;5.54;89.51
74268;BME280;62638;51.362;12.472;2023-04-25T02:45:44;99251.97;;;5.25;90.34
74268;BME280;62638;51.362;12.472;2023-04-25T02:48:09;99252.31;;;5.11;91.81
74268;BME280;62638;51.362;12.472;2023-04-25T02:50:34;99246.81;;;4.93;93.12
74268;BME280;62638;51.362;12.472;2023-04-25T02:53:00;99244.69;;;4.87;93.90
74268;BME280;62638;51.362;12.472;2023-04-25T02:55:25;99249.28;;;5.16;93.20
74268;BME280;62638;51.362;12.472;2023-04-25T02:57:51;99244.81;;;5.16;92.42
74268;BME280;62638;51.362;12.472;2023-04-25T03:00:16;99240.47;;;5.15;92.69
74268;BME280;62638;51.362;12.472;2023-04-25T03:02:41;99240.25;;;5.37;91.23
74268;BME280;62638;51.362;12.472;2023-04-25T03:05:07;99242.75;;;5.29;90.93
74268;BME280;62638;51.362;12.472;2023-04-25T03:07:32;99249.66;;;5.11;91.39
74268;BME280;62638;51.362;12.472;2023-04-25T03:09:57;99255.81;;;5.12;91.62
74268;BME280;62638;51.362;12.472;2023-04-25T03:12:22;99254.47;;;4.87;92.28
74268;BME280;62638;51.362;12.472;2023-04-25T03:14:48;99241.03;;;4.79;93.66
74268;BME280;62638;51.362;12.472;2023-04-25T03:17:13;99241.53;;;4.73;93.92
74268;BME280;62638;51.362;12.472;2023-04-25T03:19:38;99249.13;;;4.56;94.96
74268;BME280;62638;51.362;12.472;2023-04-25T03:22:04;99238.66;;;4.55;95.20
74268;BME280;62638;51.362;12.472;2023-04-25T03:24:29;99250.50;;;4.51;95.76
74268;BME280;62638;51.362;12.472;2023-04-25T03:26:54;99244.34;;;4.50;95.90
74268;BME280;62638;51.362;12.472;2023-04-25T03:29:19;99246.66;;;4.65;95.31
74268;BME280;62638;51.362;12.472;2023-04-25T03:31:49;99237.31;;;4.61;95.01
74268;BME280;62638;51.362;12.472;2023-04-25T03:34:14;99242.44;;;4.83;94.55
74268;BME280;62638;51.362;12.472;2023-04-25T03:36:40;99237.47;;;4.69;94.69
74268;BME280;62638;51.362;12.472;2023-04-25T03:39:05;99246.13;;;4.71;94.41
74268;BME280;62638;51.362;12.472;2023-04-25T03:41:31;99243.00;;;4.86;93.78
74268;BME280;62638;51.362;12.472;2023-04-25T03:43:56;99243.06;;;4.96;93.91
74268;BME280;62638;51.362;12.472;2023-04-25T03:46:21;99245.50;;;4.88;94.17
74268;BME280;62638;51.362;12.472;2023-04-25T03:48:47;99240.59;;;4.74;94.54
74268;BME280;62638;51.362;12.472;2023-04-25T03:51:12;99242.44;;;4.62;94.92
74268;BME280;62638;51.362;12.472;2023-04-25T03:53:37;99242.59;;;4.61;95.40
74268;BME280;62638;51.362;12.472;2023-04-25T03:56:02;99247.75;;;4.62;94.69
74268;BME280;62638;51.362;12.472;2023-04-25T03:58:28;99244.97;;;4.64;94.63
74268;BME280;62638;51.362;12.472;2023-04-25T04:00:53;99247.75;;;4.62;94.29
74268;BME280;62638;51.362;12.472;2023-04-25T04:03:18;99233.72;;;4.71;93.34
74268;BME280;62638;51.362;12.472;2023-04-25T04:05:43;99247.03;;;4.81;92.87
74268;BME280;62638;51.362;12.472;2023-04-25T04:08:10;99233.94;;;4.89;91.81
74268;BME280;62638;51.362;12.472;2023-04-25T04:10:35;99249.59;;;4.92;91.77
74268;BME280;62638;51.362;12.472;2023-04-25T04:13:00;99255.56;;;4.84;91.94
74268;BME280;62638;51.362;12.472;2023-04-25T04:15:26;99253.19;;;4.81;91.68
74268;BME280;62638;51.362;12.472;2023-04-25T04:17:51;99251.94;;;4.85;91.67
74268;BME280;62638;51.362;12.472;2023-04-25T04:20:16;99256.56;;;4.93;90.93
74268;BME280;62638;51.362;12.472;2023-04-25T04:22:41;99253.69;;;5.06;90.32
74268;BME280;62638;51.362;12.472;2023-04-25T04:25:07;99252.78;;;5.16;89.75
74268;BME280;62638;51.362;12.472;2023-04-25T04:27:32;99254.97;;;5.11;90.13
74268;BME280;62638;51.362;12.472;2023-04-25T04:29:58;99251.22;;;5.14;89.83
74268;BME280;62638;51.362;12.472;2023-04-25T04:32:23;99260.59;;;5.18;89.49
74268;BME280;62638;51.362;12.472;2023-04-25T04:34:49;99267.09;;;5.34;88.81
74268;BME280;62638;51.362;12.472;2023-04-25T04:37:14;99260.09;;;5.33;88.52
74268;BME280;62638;51.362;12.472;2023-04-25T04:39:39;99277.44;;;5.37;88.54
74268;BME280;62638;51.362;12.472;2023-04-25T04:42:05;99286.09;;;5.39;88.39
74268;BME280;62638;51.362;12.472;2023-04-25T04:44:31;99281.97;;;5.56;87.92
74268;BME280;62638;51.362;12.472;2023-04-25T04:46:58;99279.41;;;5.95;85.59
74268;BME280;62638;51.362;12.472;2023-04-25T04:49:23;99275.47;;;6.27;84.87
74268;BME280;62638;51.362;12.472;2023-04-25T04:51:48;99274.09;;;6.43;83.25
74268;BME280;62638;51.362;12.472;2023-04-25T04:54:14;99274.91;;;6.53;82.52
74268;BME280;62638;51.362;12.472;2023-04-25T04:56:40;99266.06;;;6.62;81.80
74268;BME280;62638;51.362;12.472;2023-04-25T04:59:05;99273.75;;;6.74;80.95
74268;BME280;62638;51.362;12.472;2023-04-25T05:01:30;99278.19;;;6.93;80.69
74268;BME280;62638;51.362;12.472;2023-04-25T05:03:56;99284.34;;;6.94;79.81
74268;BME280;62638;51.362;12.472;2023-04-25T05:06:26;99277.56;;;6.99;79.86
74268;BME280;62638;51.362;12.472;2023-04-25T05:08:52;99283.19;;;7.06;79.09
74268;BME280;62638;51.362;12.472;2023-04-25T05:11:18;99284.78;;;7.26;79.12
74268;BME280;62638;51.362;12.472;2023-04-25T05:13:43;99287.38;;;7.45;77.83
74268;BME280;62638;51.362;12.472;2023-04-25T05:16:09;99277.78;;;7.52;77.27
74268;BME280;62638;51.362;12.472;2023-04-25T05:18:34;99288.97;;;7.56;77.47
74268;BME280;62638;51.362;12.472;2023-04-25T05:21:00;99289.19;;;7.72;76.93
74268;BME280;62638;51.362;12.472;2023-04-25T05:23:25;99289.41;;;7.79;76.44
74268;BME280;62638;51.362;12.472;2023-04-25T05:25:52;99279.91;;;7.76;75.94
74268;BME280;62638;51.362;12.472;2023-04-25T05:28:18;99283.28;;;7.68;75.04
74268;BME280;62638;51.362;12.472;2023-04-25T05:30:43;99284.44;;;7.66;75.72
74268;BME280;62638;51.362;12.472;2023-04-25T05:33:08;99287.44;;;7.81;75.44
74268;BME280;62638;51.362;12.472;2023-04-25T05:35:34;99271.00;;;7.85;75.41
74268;BME280;62638;51.362;12.472;2023-04-25T05:37:59;99287.38;;;7.90;75.17
74268;BME280;62638;51.362;12.472;2023-04-25T05:40:25;99287.75;;;7.95;74.11
74268;BME280;62638;51.362;12.472;2023-04-25T05:42:50;99285.53;;;7.91;73.91
74268;BME280;62638;51.362;12.472;2023-04-25T05:45:15;99294.25;;;8.10;74.77
74268;BME280;62638;51.362;12.472;2023-04-25T05:47:42;99300.88;;;8.24;73.62
74268;BME280;62638;51.362;12.472;2023-04-25T05:50:08;99289.53;;;8.22;73.53
74268;BME280;62638;51.362;12.472;2023-04-25T05:52:33;99298.91;;;8.26;73.87
74268;BME280;62638;51.362;12.472;2023-04-25T05:54:58;99301.66;;;8.52;72.38
74268;BME280;62638;51.362;12.472;2023-04-25T05:57:25;99301.84;;;8.76;73.32
74268;BME280;62638;51.362;12.472;2023-04-25T05:59:51;99307.84;;;8.52;72.13
74268;BME280;62638;51.362;12.472;2023-04-25T06:02:20;99309.97;;;8.49;72.21
74268;BME280;62638;51.362;12.472;2023-04-25T06:04:47;99307.00;;;8.52;72.46
74268;BME280;62638;51.362;12.472;2023-04-25T06:07:12;99310.38;;;8.54;73.15
74268;BME280;62638;51.362;12.472;2023-04-25T06:09:38;99306.34;;;8.50;73.00
74268;BME280;62638;51.362;12.472;2023-04-25T06:12:05;99311.31;;;8.88;72.13
74268;BME280;62638;51.362;12.472;2023-04-25T06:14:30;99318.88;;;8.75;70.88
74268;BME280;62638;51.362;12.472;2023-04-25T06:16:55;99332.97;;;8.68;71.14
74268;BME280;62638;51.362;12.472;2023-04-25T06:19:21;99327.81;;;8.66;71.97
74268;BME280;62638;51.362;12.472;2023-04-25T06:21:46;99329.19;;;8.96;71.61
74268;BME280;62638;51.362;12.472;2023-04-25T06:24:11;99323.09;;;9.37;70.48
74268;BME280;62638;51.362;12.472;2023-04-25T06:26:36;99324.47;;;9.16;71.05
74268;BME280;62638;51.362;12.472;2023-04-25T06:29:02;99331.06;;;9.29;70.49
74268;BME280;62638;51.362;12.472;2023-04-25T06:31:27;99326.09;;;9.34;70.30
74268;BME280;62638;51.362;12.472;2023-04-25T06:33:54;99321.19;;;8.96;71.97
74268;BME280;62638;51.362;12.472;2023-04-25T06:36:20;99317.75;;;8.42;72.50
74268;BME280;62638;51.362;12.472;2023-04-25T06:38:52;99323.63;;;8.46;73.11
74268;BME280;62638;51.362;12.472;2023-04-25T06:41:18;99328.84;;;8.73;73.17
74268;BME280;62638;51.362;12.472;2023-04-25T06:43:44;99322.41;;;8.58;73.32
74268;BME280;62638;51.362;12.472;2023-04-25T06:46:09;99326.78;;;8.41;73.48
74268;BME280;62638;51.362;12.472;2023-04-25T06:48:34;99336.94;;;8.63;73.60
74268;BME280;62638;51.362;12.472;2023-04-25T06:51:00;99338.78;;;8.63;73.78
74268;BME280;62638;51.362;12.472;2023-04-25T06:53:25;99343.88;;;8.74;73.10
74268;BME280;62638;51.362;12.472;2023-04-25T06:55:50;99342.34;;;8.72;73.28
74268;BME280;62638;51.362;12.472;2023-04-25T06:58:16;99339.78;;;8.80;73.56
74268;BME280;62638;51.362;12.472;2023-04-25T07:00:41;99335.88;;;8.74;73.96
74268;BME280;62638;51.362;12.472;2023-04-25T07:03:06;99333.22;;;8.74;74.01
74268;BME280;62638;51.362;12.472;2023-04-25T07:05:32;99344.22;;;8.71;73.50
74268;BME280;62638;51.362;12.472;2023-04-25T07:07:57;99345.28;;;8.60;73.76
74268;BME280;62638;51.362;12.472;2023-04-25T07:10:22;99358.94;;;8.40;76.23
74268;BME280;62638;51.362;12.472;2023-04-25T07:12:47;99344.38;;;8.25;75.66
74268;BME280;62638;51.362;12.472;2023-04-25T07:15:13;99355.75;;;8.27;75.95
74268;BME280;62638;51.362;12.472;2023-04-25T07:17:38;99346.63;;;8.29;76.34
74268;BME280;62638;51.362;12.472;2023-04-25T07:20:04;99358.84;;;8.49;76.45
74268;BME280;62638;51.362;12.472;2023-04-25T07:22:31;99355.88;;;8.35;76.65
74268;BME280;62638;51.362;12.472;2023-04-25T07:24:56;99357.78;;;8.42;76.63
74268;BME280;62638;51.362;12.472;2023-04-25T07:27:21;99366.69;;;8.33;76.36
74268;BME280;62638;51.362;12.472;2023-04-25T07:29:46;99360.50;;;8.33;76.79
74268;BME280;62638;51.362;12.472;2023-04-25T07:32:12;99364.41;;;8.38;77.04
74268;BME280;62638;51.362;12.472;2023-04-25T07:34:38;99355.88;;;8.52;76.24
74268;BME280;62638;51.362;12.472;2023-04-25T07:37:04;99361.75;;;8.56;76.74
74268;BME280;62638;51.362;12.472;2023-04-25T07:39:29;99368.63;;;8.41;75.85
74268;BME280;62638;51.362;12.472;2023-04-25T07:41:55;99371.28;;;8.41;76.03
74268;BME280;62638;51.362;12.472;2023-04-25T07:44:21;99371.50;;;8.30;76.19
74268;BME280;62638;51.362;12.472;2023-04-25T07:46:46;99377.78;;;8.29;76.39
74268;BME280;62638;51.362;12.472;2023-04-25T07:49:11;99378.66;;;8.29;77.19
74268;BME280;62638;51.362;12.472;2023-04-25T07:51:37;99385.25;;;8.25;76.74
74268;BME280;62638;51.362;12.472;2023-04-25T07:54:02;99379.88;;;8.07;77.51
74268;BME280;62638;51.362;12.472;2023-04-25T07:56:27;99384.94;;;8.10;78.27
74268;BME280;62638;51.362;12.472;2023-04-25T07:58:53;99380.06;;;8.24;77.99
74268;BME280;62638;51.362;12.472;2023-04-25T08:01:18;99398.03;;;8.21;77.90
74268;BME280;62638;51.362;12.472;2023-04-25T08:03:45;99405.81;;;7.88;77.19
74268;BME280;62638;51.362;12.472;2023-04-25T08:06:11;99411.94;;;7.98;76.81
74268;BME280;62638;51.362;12.472;2023-04-25T08:08:36;99399.16;;;8.01;75.55
74268;BME280;62638;51.362;12.472;2023-04-25T08:11:01;99408.84;;;8.02;75.73
74268;BME280;62638;51.362;12.472;2023-04-25T08:13:26;99403.19;;;7.78;75.70
74268;BME280;62638;51.362;12.472;2023-04-25T08:15:52;99412.97;;;8.14;74.48
74268;BME280;62638;51.362;12.472;2023-04-25T08:18:17;99403.25;;;8.23;73.23
74268;BME280;62638;51.362;12.472;2023-04-25T08:20:43;99412.59;;;8.54;71.88
74268;BME280;62638;51.362;12.472;2023-04-25T08:23:08;99415.59;;;8.69;70.76
74268;BME280;62638;51.362;12.472;2023-04-25T08:25:33;99416.41;;;8.70;69.05
74268;BME280;62638;51.362;12.472;2023-04-25T08:27:59;99416.09;;;8.73;69.15
74268;BME280;62638;51.362;12.472;2023-04-25T08:30:24;99427.25;;;8.86;68.41
74268;BME280;62638;51.362;12.472;2023-04-25T08:32:50;99422.16;;;8.75;68.52
74268;BME280;62638;51.362;12.472;2023-04-25T08:35:15;99443.13;;;8.70;68.73
74268;BME280;62638;51.362;12.472;2023-04-25T08:37:42;99441.97;;;8.72;68.08
74268;BME280;62638;51.362;12.472;2023-04-25T08:40:11;99435.50;;;9.10;67.84
74268;BME280;62638;51.362;12.472;2023-04-25T08:42:40;99444.34;;;8.93;67.63
74268;BME280;62638;51.362;12.472;2023-04-25T08:45:07;99449.13;;;8.72;69.20
74268;BME280;62638;51.362;12.472;2023-04-25T08:47:33;99453.66;;;8.71;69.50
74268;BME280;62638;51.362;12.472;2023-04-25T08:50:04;99447.59;;;8.51;69.98
74268;BME280;62638;51.362;12.472;2023-04-25T08:52:35;99455.38;;;8.45;70.98
74268;BME280;62638;51.362;12.472;2023-04-25T08:55:01;99458.81;;;8.73;71.08
74268;BME280;62638;51.362;12.472;2023-04-25T08:57:28;99464.34;;;8.71;69.23
74268;BME280;62638;51.362;12.472;2023-04-25T08:59:54;99468.28;;;8.67;67.46
74268;BME280;62638;51.362;12.472;2023-04-25T09:02:21;99477.22;;;8.58;68.39
74268;BME280;62638;51.362;12.472;2023-04-25T09:04:47;99471.53;;;8.43;68.64
74268;BME280;62638;51.362;12.472;2023-04-25T09:07:12;99481.13;;;8.36;68.57
74268;BME280;62638;51.362;12.472;2023-04-25T09:09:40;99483.97;;;8.52;68.97
74268;BME280;62638;51.362;12.472;2023-04-25T09:12:06;99475.81;;;8.72;68.83
74268;BME280;62638;51.362;12.472;2023-04-25T09:14:31;99485.41;;;8.92;69.51
74268;BME280;62638;51.362;12.472;2023-04-25T09:16:57;99484.28;;;9.38;67.73
74268;BME280;62638;51.362;12.472;2023-04-25T09:19:25;99487.13;;;9.62;66.87
74268;BME280;62638;51.362;12.472;2023-04-25T09:21:55;99497.53;;;9.65;66.23
74268;BME280;62638;51.362;12.472;2023-04-25T09:24:37;99491.41;;;9.73;66.04
74268;BME280;62638;51.362;12.472;2023-04-25T09:27:07;99488.56;;;9.74;64.64
74268;BME280;62638;51.362;12.472;2023-04-25T09:29:38;99490.34;;;9.91;64.56
74268;BME280;62638;51.362;12.472;2023-04-25T09:32:17;99496.75;;;9.73;66.17
74268;BME280;62638;51.362;12.472;2023-04-25T09:34:46;99502.88;;;9.22;65.32
74268;BME280;62638;51.362;12.472;2023-04-25T09:37:23;99510.56;;;9.42;64.89
74268;BME280;62638;51.362;12.472;2023-04-25T09:39:49;99508.88;;;9.24;64.52
74268;BME280;62638;51.362;12.472;2023-04-25T09:42:16;99517.19;;;9.03;64.01
74268;BME280;62638;51.362;12.472;2023-04-25T09:44:44;99510.66;;;8.80;65.14
74268;BME280;62638;51.362;12.472;2023-04-25T09:47:10;99513.41;;;9.05;65.17
74268;BME280;62638;51.362;12.472;2023-04-25T09:49:38;99523.16;;;8.97;65.07
74268;BME280;62638;51.362;12.472;2023-04-25T09:52:04;99525.19;;;8.85;66.48
74268;BME280;62638;51.362;12.472;2023-04-25T09:54:29;99520.81;;;8.49;69.51
74268;BME280;62638;51.362;12.472;2023-04-25T09:56:55;99525.56;;;8.73;69.28
74268;BME280;62638;51.362;12.472;2023-04-25T09:59:21;99528.97;;;8.92;69.67
74268;BME280;62638;51.362;12.472;2023-04-25T10:01:48;99536.34;;;8.98;67.89
74268;BME280;62638;51.362;12.472;2023-04-25T10:04:23;99530.81;;;9.09;68.47
74268;BME280;62638;51.362;12.472;2023-04-25T10:06:49;99523.53;;;9.37;66.23
74268;BME280;62638;51.362;12.472;2023-04-25T10:09:19;99526.19;;;9.37;66.73
74268;BME280;62638;51.362;12.472;2023-04-25T10:11:46;99532.44;;;8.75;67.44
74268;BME280;62638;51.362;12.472;2023-04-25T10:14:13;99535.97;;;8.93;68.37
74268;BME280;62638;51.362;12.472;2023-04-25T10:16:40;99541.56;;;9.00;68.64
74268;BME280;62638;51.362;12.472;2023-04-25T10:19:07;99545.81;;;9.10;68.34
74268;BME280;62638;51.362;12.472;2023-04-25T10:21:33;99536.16;;;9.27;67.39
74268;BME280;62638;51.362;12.472;2023-04-25T10:23:59;99538.66;;;9.29;66.26
74268;BME280;62638;51.362;12.472;2023-04-25T10:26:25;99537.59;;;9.39;66.46
74268;BME280;62638;51.362;12.472;2023-04-25T10:28:58;99513.00;;;9.36;65.87
74268;BME280;62638;51.362;12.472;2023-04-25T10:31:24;99529.69;;;9.55;64.47
74268;BME280;62638;51.362;12.472;2023-04-25T10:33:50;99530.19;;;9.77;64.92
74268;BME280;62638;51.362;12.472;2023-04-25T10:36:18;99536.13;;;9.88;64.29
74268;BME280;62638;51.362;12.472;2023-04-25T10:38:45;99532.56;;;9.62;65.14
74268;BME280;62638;51.362;12.472;2023-04-25T10:41:12;99534.22;;;10.07;64.98
74268;BME280;62638;51.362;12.472;2023-04-25T10:43:49;99540.31;;;9.65;65.61
74268;BME280;62638;51.362;12.472;2023-04-25T10:46:17;99538.13;;;9.43;66.13
74268;BME280;62638;51.362;12.472;2023-04-25T10:48:50;99533.38;;;9.80;65.14
74268;BME280;62638;51.362;12.472;2023-04-25T10:51:45;99539.34;;;9.48;66.75
74268;BME280;62638;51.362;12.472;2023-04-25T10:54:11;99533.31;;;9.29;66.54
74268;BME280;62638;51.362;12.472;2023-04-25T10:56:38;99539.56;;;9.20;65.55
74268;BME280;62638;51.362;12.472;2023-04-25T10:59:17;99540.56;;;9.36;66.66
74268;BME280;62638;51.362;12.472;2023-04-25T11:01:47;99539.03;;;9.16;66.62
74268;BME280;62638;51.362;12.472;2023-04-25T11:09:32;99553.25;;;9.34;66.27
74268;BME280;62638;51.362;12.472;2023-04-25T11:11:59;99553.25;;;9.17;67.52
74268;BME280;62638;51.362;12.472;2023-04-25T11:14:25;99559.28;;;9.19;67.31
74268;BME280;62638;51.362;12.472;2023-04-25T11:16:54;99561.84;;;9.10;68.32
74268;BME280;62638;51.362;12.472;2023-04-25T11:19:21;99562.44;;;8.87;67.99
74268;BME280;62638;51.362;12.472;2023-04-25T11:21:46;99570.97;;;8.45;67.01
74268;BME280;62638;51.362;12.472;2023-04-25T11:24:11;99571.25;;;8.33;67.11
74268;BME280;62638;51.362;12.472;2023-04-25T11:26:37;99570.59;;;8.11;68.63
74268;BME280;62638;51.362;12.472;2023-04-25T11:29:03;99571.34;;;8.04;68.56
74268;BME280;62638;51.362;12.472;2023-04-25T11:31:29;99566.56;;;8.07;68.90
74268;BME280;62638;51.362;12.472;2023-04-25T11:33:56;99578.03;;;8.17;67.75
74268;BME280;62638;51.362;12.472;2023-04-25T11:36:23;99564.13;;;8.24;67.39
74268;BME280;62638;51.362;12.472;2023-04-25T11:38:50;99566.34;;;8.38;66.97
74268;BME280;62638;51.362;12.472;2023-04-25T11:41:15;99575.34;;;8.64;67.05
74268;BME280;62638;51.362;12.472;2023-04-25T11:43:43;99585.75;;;8.67;68.10
74268;BME280;62638;51.362;12.472;2023-04-25T11:46:08;99578.69;;;8.76;66.85
74268;BME280;62638;51.362;12.472;2023-04-25T11:48:38;99585.69;;;8.77;66.60
74268;BME280;62638;51.362;12.472;2023-04-25T11:51:04;99573.59;;;9.00;65.08
74268;BME280;62638;51.362;12.472;2023-04-25T11:53:29;99581.56;;;9.27;63.59
74268;BME280;62638;51.362;12.472;2023-04-25T11:55:54;99585.38;;;9.25;63.62
74268;BME280;62638;51.362;12.472;2023-04-25T11:58:21;99574.63;;;9.34;61.11
74268;BME280;62638;51.362;12.472;2023-04-25T12:00:46;99588.59;;;9.46;61.34
74268;BME280;62638;51.362;12.472;2023-04-25T12:03:11;99583.56;;;9.43;61.09
74268;BME280;62638;51.362;12.472;2023-04-25T12:05:37;99587.59;;;9.29;61.11
74268;BME280;62638;51.362;12.472;2023-04-25T12:08:10;99591.03;;;9.22;61.30
74268;BME280;62638;51.362;12.472;2023-04-25T12:10:37;99589.88;;;9.24;60.30
74268;BME280;62638;51.362;12.472;2023-04-25T12:13:17;99592.06;;;9.11;61.25
74268;BME280;62638;51.362;12.472;2023-04-25T12:15:42;99593.41;;;9.42;61.04
74268;BME280;62638;51.362;12.472;2023-04-25T12:18:08;99596.75;;;9.27;60.54
74268;BME280;62638;51.362;12.472;2023-04-25T12:20:33;99595.69;;;9.37;59.46
74268;BME280;62638;51.362;12.472;2023-04-25T12:22:58;99598.16;;;9.66;59.69
74268;BME280;62638;51.362;12.472;2023-04-25T12:25:41;99592.66;;;10.37;56.74
74268;BME280;62638;51.362;12.472;2023-04-25T12:28:10;99595.19;;;10.80;54.56
74268;BME280;62638;51.362;12.472;2023-04-25T12:30:57;99596.59;;;11.01;53.31
74268;BME280;62638;51.362;12.472;2023-04-25T12:33:23;99584.25;;;10.66;52.17
74268;BME280;62638;51.362;12.472;2023-04-25T12:35:48;99607.31;;;10.25;53.94
74268;BME280;62638;51.362;12.472;2023-04-25T12:38:24;99601.03;;;9.73;54.39
74268;BME280;62638;51.362;12.472;2023-04-25T12:40:49;99600.97;;;9.47;55.43
74268;BME280;62638;51.362;12.472;2023-04-25T12:43:15;99601.25;;;9.26;58.19
74268;BME280;62638;51.362;12.472;2023-04-25T12:45:40;99605.22;;;8.77;58.25
74268;BME280;62638;51.362;12.472;2023-04-25T12:48:05;99608.69;;;8.87;59.09
74268;BME280;62638;51.362;12.472;2023-04-25T12:50:30;99605.38;;;8.76;59.56
74268;BME280;62638;51.362;12.472;2023-04-25T12:52:57;99604.72;;;8.91;58.58
74268;BME280;62638;51.362;12.472;2023-04-25T12:55:22;99598.66;;;9.17;56.15
74268;BME280;62638;51.362;12.472;2023-04-25T12:57:47;99604.31;;;9.14;57.01
74268;BME280;62638;51.362;12.472;2023-04-25T13:00:13;99598.03;;;9.05;57.14